Time;durP1;ratioP1;P1;durP2;ratioP2;P2;SDS_P1;SDS_P2;PMS_P1;PMS_P2;Temp;Humidity;BMP_temperature;BMP_pressure;BME280_temperature;BME280_humidity;BME280_pressure;Samples;Min_cycle;Max_cycle;Signal;HPM_P1;HPM_P2
2023/03/02 00:01:50;;;;;;;14.40;9.50;;;;;;;-2.38;78.19;101830.50;4978519;28;20215;-82
2023/03/02 00:04:20;;;;;;;15.97;9.20;;;;;;;-2.40;78.22;101837.44;4975635;28;20698;-81
2023/03/02 00:06:47;;;;;;;10.17;7.87;;;;;;;-2.44;77.68;101830.44;4984094;28;20278;-83
2023/03/02 00:09:14;;;;;;;11.03;7.47;;;;;;;-2.50;77.71;101840.81;4983254;28;20256;-84
2023/03/02 00:11:41;;;;;;;10.10;6.90;;;;;;;-2.57;77.69;101841.63;4974577;28;20283;-82
2023/03/02 00:14:07;;;;;;;12.60;7.27;;;;;;;-2.62;77.50;101838.97;4977426;28;20217;-81
2023/03/02 00:16:34;;;;;;;11.67;7.43;;;;;;;-2.65;77.92;101838.94;4980004;28;20228;-81
2023/03/02 00:19:02;;;;;;;10.53;7.30;;;;;;;-2.70;77.85;101840.66;4982184;28;20219;-81
2023/03/02 00:21:30;;;;;;;10.80;7.13;;;;;;;-2.75;77.58;101850.13;4980477;28;20204;-81
2023/03/02 00:23:57;;;;;;;11.27;7.67;;;;;;;-2.81;77.78;101843.13;4976416;28;20230;-81
2023/03/02 00:26:23;;;;;;;12.03;7.63;;;;;;;-2.83;77.91;101850.06;4974221;28;20207;-82
2023/03/02 00:28:50;;;;;;;11.17;8.30;;;;;;;-2.84;78.26;101855.25;4977744;28;20296;-82
2023/03/02 00:31:17;;;;;;;12.77;8.47;;;;;;;-2.85;78.11;101861.31;4972306;28;20204;-82
2023/03/02 00:33:43;;;;;;;11.43;8.20;;;;;;;-2.86;78.49;101860.44;4980212;28;20232;-81
2023/03/02 00:36:16;;;;;;;12.20;8.60;;;;;;;-2.88;78.78;101843.94;4976938;28;20709;-83
2023/03/02 00:38:43;;;;;;;15.03;9.03;;;;;;;-2.88;78.99;101843.94;4976618;28;20208;-81
2023/03/02 00:41:10;;;;;;;17.50;8.60;;;;;;;-2.88;79.14;101851.75;4976483;28;20209;-82
2023/03/02 00:43:37;;;;;;;13.87;9.33;;;;;;;-2.89;78.95;101855.22;4972726;28;20220;-83
2023/03/02 00:46:09;;;;;;;16.57;9.97;;;;;;;-2.90;79.28;101850.88;4975627;28;20232;-81
2023/03/02 00:48:36;;;;;;;16.60;8.87;;;;;;;-2.89;79.49;101854.34;4979123;28;20543;-81
2023/03/02 00:51:02;;;;;;;15.20;9.70;;;;;;;-2.89;79.88;101843.91;4977682;28;20793;-81
2023/03/02 00:53:30;;;;;;;18.40;9.83;;;;;;;-2.91;79.71;101854.31;4978130;28;20252;-82
2023/03/02 00:55:57;;;;;;;11.70;8.47;;;;;;;-2.91;79.76;101856.94;4979635;28;20208;-82
2023/03/02 00:58:23;;;;;;;13.50;8.37;;;;;;;-2.92;80.04;101846.50;4979474;28;20231;-82
2023/03/02 01:00:49;;;;;;;13.37;9.10;;;;;;;-2.94;80.08;101849.06;4981332;28;20239;-83
2023/03/02 01:03:16;;;;;;;13.30;9.07;;;;;;;-2.95;79.97;101842.13;4973706;28;20231;-81
2023/03/02 01:05:42;;;;;;;16.77;9.40;;;;;;;-2.96;80.14;101844.69;4977539;28;20215;-82
2023/03/02 01:08:09;;;;;;;16.30;9.67;;;;;;;-2.97;80.47;101837.72;4982990;28;20218;-83
2023/03/02 01:10:37;;;;;;;12.23;8.73;;;;;;;-2.98;80.28;101842.06;4977622;28;20571;-84
2023/03/02 01:13:04;;;;;;;11.20;7.67;;;;;;;-3.01;80.17;101835.94;4978158;28;20228;-83
2023/03/02 01:15:31;;;;;;;13.83;8.17;;;;;;;-3.06;80.38;101841.13;4977558;28;20213;-82
2023/03/02 01:17:58;;;;;;;11.00;8.10;;;;;;;-3.09;80.22;101840.22;4971494;28;20293;-82
2023/03/02 01:20:25;;;;;;;10.33;7.40;;;;;;;-3.12;80.33;101843.66;4973165;28;20670;-81
2023/03/02 01:22:51;;;;;;;12.00;8.10;;;;;;;-3.15;80.42;101835.78;4970572;28;20240;-82
2023/03/02 01:25:18;;;;;;;11.47;8.07;;;;;;;-3.20;80.63;101834.88;4967906;28;20208;-81
2023/03/02 01:27:46;;;;;;;11.97;7.80;;;;;;;-3.23;80.34;101832.25;4974192;28;20208;-82
2023/03/02 01:30:14;;;;;;;11.17;7.77;;;;;;;-3.28;80.36;101826.09;4974513;28;20304;-82
2023/03/02 01:32:40;;;;;;;12.23;8.17;;;;;;;-3.31;80.55;101831.25;4970646;28;20247;-82
2023/03/02 01:35:07;;;;;;;13.10;8.97;;;;;;;-3.33;80.58;101827.75;4973997;28;20205;-81
2023/03/02 01:37:34;;;;;;;15.07;8.93;;;;;;;-3.35;81.07;101826.88;4979137;28;20258;-83
2023/03/02 01:40:05;;;;;;;12.23;7.80;;;;;;;-3.37;81.06;101821.63;4976050;28;20579;-81
2023/03/02 01:42:34;;;;;;;11.57;8.30;;;;;;;-3.38;80.97;101819.00;4977635;28;20730;-81
2023/03/02 01:45:02;;;;;;;11.87;7.63;;;;;;;-3.39;80.97;101817.25;4972523;28;20689;-80
2023/03/02 01:47:34;;;;;;;15.83;8.67;;;;;;;-3.41;81.42;101816.41;4969401;28;20204;-81
2023/03/02 01:50:05;;;;;;;14.00;7.33;;;;;;;-3.43;81.47;101820.72;4971801;28;20221;-81
2023/03/02 01:52:37;;;;;;;12.33;8.20;;;;;;;-3.45;81.33;101814.59;4976923;28;20200;-81
2023/03/02 01:55:07;;;;;;;13.07;8.30;;;;;;;-3.50;81.57;101810.22;4986312;28;20560;-80
2023/03/02 01:57:42;;;;;;;10.47;7.93;;;;;;;-3.50;81.41;101801.53;4967078;28;20690;-82
2023/03/02 02:00:15;;;;;;;13.30;8.07;;;;;;;-3.54;81.69;101798.00;4971047;28;20206;-80
2023/03/02 02:02:42;;;;;;;13.47;7.77;;;;;;;-3.54;81.51;101795.38;4975755;28;20316;-82
2023/03/02 02:05:10;;;;;;;12.70;8.27;;;;;;;-3.55;81.81;101800.56;4971860;28;20211;-83
2023/03/02 02:07:37;;;;;;;12.70;8.00;;;;;;;-3.55;81.88;101796.25;4969421;28;20208;-82
2023/03/02 02:10:05;;;;;;;11.50;7.80;;;;;;;-3.56;81.89;101804.03;4981268;28;20222;-85
2023/03/02 02:12:31;;;;;;;14.10;8.03;;;;;;;-3.59;81.92;101794.47;4973840;28;20662;-82
2023/03/02 02:14:59;;;;;;;11.10;7.90;;;;;;;-3.61;82.03;101795.31;4967755;28;20213;-82
2023/03/02 02:17:29;;;;;;;12.70;7.67;;;;;;;-3.62;81.91;101804.84;4969177;28;20256;-82
2023/03/02 02:20:06;;;;;;;13.57;8.43;;;;;;;-3.66;81.96;101805.66;4974678;28;20211;-81
2023/03/02 02:22:44;;;;;;;10.40;7.70;;;;;;;-3.70;81.83;101795.19;4975949;28;20208;-81
2023/03/02 02:25:20;;;;;;;12.27;8.10;;;;;;;-3.74;82.11;101796.88;4960999;28;20674;-80
2023/03/02 02:27:48;;;;;;;12.40;7.67;;;;;;;-3.77;82.08;101795.97;4974648;28;20595;-80
2023/03/02 02:30:16;;;;;;;10.90;7.33;;;;;;;-3.81;82.07;101792.44;4963629;28;20205;-80
2023/03/02 02:32:44;;;;;;;11.87;7.20;;;;;;;-3.83;82.17;101793.28;4957684;28;20225;-80
2023/03/02 02:35:15;;;;;;;11.90;7.83;;;;;;;-3.85;82.41;101795.84;4974376;28;20220;-81
2023/03/02 02:37:45;;;;;;;10.40;7.13;;;;;;;-3.88;82.29;101796.69;4971549;28;20229;-81
2023/03/02 02:40:16;;;;;;;12.13;7.83;;;;;;;-3.89;82.41;101794.94;4984651;28;20231;-80
2023/03/02 02:42:45;;;;;;;14.50;8.33;;;;;;;-3.90;82.75;101792.31;4964925;28;20713;-81
2023/03/02 02:45:21;;;;;;;12.00;7.50;;;;;;;-3.92;82.96;101786.19;4974210;28;20256;-81
2023/03/02 02:47:49;;;;;;;16.17;8.20;;;;;;;-3.92;82.87;101789.69;4965619;28;20203;-81
2023/03/02 02:50:19;;;;;;;12.40;7.27;;;;;;;-3.94;83.08;101791.38;4972544;28;20564;-80
2023/03/02 02:52:50;;;;;;;11.07;7.30;;;;;;;-3.94;83.24;101785.34;4980719;28;20232;-80
2023/03/02 02:55:21;;;;;;;12.57;7.07;;;;;;;-3.93;83.20;101800.06;4974854;28;20201;-80
2023/03/02 02:57:49;;;;;;;12.13;7.13;;;;;;;-3.94;83.43;101790.53;4975303;28;20303;-81
2023/03/02 03:00:19;;;;;;;12.47;7.20;;;;;;;-3.95;83.39;101794.00;4978211;28;20208;-82
2023/03/02 03:02:49;;;;;;;11.43;7.60;;;;;;;-3.97;83.71;101793.97;4978204;28;20231;-82
2023/03/02 03:05:16;;;;;;;12.33;7.40;;;;;;;-4.00;83.58;101799.13;4978545;28;20192;-82
2023/03/02 03:07:43;;;;;;;11.63;7.57;;;;;;;-4.03;83.50;101796.47;4978112;28;20216;-81
2023/03/02 03:10:16;;;;;;;11.63;7.43;;;;;;;-4.05;83.54;101800.78;4978070;28;20662;-80
2023/03/02 03:12:42;;;;;;;12.10;8.30;;;;;;;-4.04;83.79;101793.84;4971656;28;20721;-83
2023/03/02 03:15:11;;;;;;;13.03;7.93;;;;;;;-4.06;83.83;101791.22;4958032;28;20212;-81
2023/03/02 03:17:39;;;;;;;12.47;7.73;;;;;;;-4.05;83.88;101786.88;4958490;29;20229;-80
2023/03/02 03:20:08;;;;;;;12.63;7.40;;;;;;;-4.08;83.92;101787.72;4957752;28;20217;-80
2023/03/02 03:22:35;;;;;;;12.73;7.93;;;;;;;-4.09;83.88;101774.69;4959243;28;20224;-83
2023/03/02 03:25:02;;;;;;;12.20;7.73;;;;;;;-4.10;84.03;101783.34;4968106;28;20215;-80
2023/03/02 03:27:29;;;;;;;13.97;8.23;;;;;;;-4.10;84.06;101781.63;4973034;28;20200;-83
2023/03/02 03:29:55;;;;;;;12.33;7.97;;;;;;;-4.12;84.16;101782.47;4969962;28;20216;-81
2023/03/02 03:32:22;;;;;;;12.67;7.40;;;;;;;-4.14;84.30;101778.97;4960206;28;20212;-81
2023/03/02 03:34:50;;;;;;;12.73;8.10;;;;;;;-4.16;84.34;101772.88;4958956;28;20572;-83
2023/03/02 03:37:19;;;;;;;11.70;8.30;;;;;;;-4.18;84.49;101772.84;4966380;28;20316;-80
2023/03/02 03:39:46;;;;;;;11.83;7.93;;;;;;;-4.18;84.46;101764.16;4972307;28;20215;-83
2023/03/02 03:42:16;;;;;;;16.27;8.37;;;;;;;-4.18;84.78;101770.25;4969913;28;20749;-80
2023/03/02 03:44:42;;;;;;;12.13;7.80;;;;;;;-4.18;84.62;101771.97;4973176;28;20706;-81
2023/03/02 03:47:09;;;;;;;11.23;6.80;;;;;;;-4.22;84.36;101764.13;4968880;28;20291;-80
2023/03/02 03:49:36;;;;;;;12.90;7.53;;;;;;;-4.29;84.23;101766.59;4977110;28;20295;-80
2023/03/02 03:52:04;;;;;;;8.67;6.47;;;;;;;-4.33;84.15;101776.09;4975645;28;20200;-83
2023/03/02 03:54:30;;;;;;;14.00;7.63;;;;;;;-4.34;84.15;101792.53;4972705;28;20220;-81
2023/03/02 03:56:57;;;;;;;11.07;7.57;;;;;;;-4.36;84.36;101783.84;4972103;28;20204;-80
2023/03/02 03:59:25;;;;;;;13.87;7.23;;;;;;;-4.37;84.55;101786.41;4970344;28;20204;-80
2023/03/02 04:01:53;;;;;;;13.23;7.93;;;;;;;-4.38;84.51;101788.16;4976605;28;20209;-80
2023/03/02 04:04:23;;;;;;;12.43;8.07;;;;;;;-4.38;84.73;101793.34;4972954;28;20217;-80
2023/03/02 04:06:50;;;;;;;12.80;7.73;;;;;;;-4.37;84.64;101792.50;4967917;28;20216;-80
2023/03/02 04:09:18;;;;;;;14.13;8.47;;;;;;;-4.37;85.18;101795.09;4971745;28;20205;-80
2023/03/02 04:11:47;;;;;;;13.57;7.37;;;;;;;-4.36;85.27;101799.44;4969918;28;20400;-82
2023/03/02 04:14:15;;;;;;;11.67;7.97;;;;;;;-4.33;85.24;101802.09;4966874;28;20332;-81
2023/03/02 04:16:42;;;;;;;11.83;7.63;;;;;;;-4.33;85.20;101796.91;4978666;28;20606;-81
2023/03/02 04:19:10;;;;;;;12.43;7.93;;;;;;;-4.31;85.44;101790.00;4968629;28;20236;-80
2023/03/02 04:21:38;;;;;;;11.83;7.40;;;;;;;-4.33;85.61;101788.22;4976582;28;20200;-80
2023/03/02 04:24:05;;;;;;;12.20;7.57;;;;;;;-4.31;85.77;101794.31;4962353;28;20229;-81
2023/03/02 04:26:33;;;;;;;14.00;8.30;;;;;;;-4.35;85.46;101788.19;4974772;28;20204;-85
2023/03/02 04:29:00;;;;;;;10.67;7.30;;;;;;;-4.36;85.85;101802.06;4972963;28;20207;-80
2023/03/02 04:31:26;;;;;;;10.27;8.00;;;;;;;-4.39;85.53;101799.41;4974848;28;20228;-81
2023/03/02 04:33:53;;;;;;;14.37;8.43;;;;;;;-4.43;85.72;101805.38;4977303;28;20331;-81
2023/03/02 04:36:20;;;;;;;13.87;8.73;;;;;;;-4.44;85.68;101798.44;4982690;28;20206;-80
2023/03/02 04:38:47;;;;;;;17.90;9.17;;;;;;;-4.40;87.50;101799.38;4962673;28;20620;-80
2023/03/02 04:41:13;;;;;;;20.33;10.83;;;;;;;-4.35;89.80;101797.72;4963689;28;20201;-82
2023/03/02 04:43:41;;;;;;;31.23;13.43;;;;;;;-4.30;89.65;101794.31;4964944;28;20243;-80
2023/03/02 04:46:09;;;;;;;32.00;14.13;;;;;;;-4.21;89.78;101793.59;4969199;28;20216;-81
2023/03/02 04:48:36;;;;;;;31.30;14.97;;;;;;;-4.14;90.10;101797.19;4970529;28;20207;-80
2023/03/02 04:51:03;;;;;;;33.63;15.43;;;;;;;-4.11;90.83;101794.59;4974129;28;20215;-80
2023/03/02 04:53:29;;;;;;;47.50;15.67;;;;;;;-4.07;90.87;101788.59;4956517;28;20225;-83
2023/03/02 04:55:56;;;;;;;41.73;15.93;;;;;;;-4.02;91.67;101792.16;4964615;28;20216;-80
2023/03/02 04:58:22;;;;;;;65.33;17.83;;;;;;;-3.96;91.82;101790.50;4972880;28;20228;-81
2023/03/02 05:00:51;;;;;;;70.53;18.77;;;;;;;-3.90;92.30;101793.19;4968088;28;20227;-81
2023/03/02 05:03:18;;;;;;;47.20;17.20;;;;;;;-3.84;92.94;101792.41;4970275;28;20286;-82
2023/03/02 05:05:44;;;;;;;48.60;18.37;;;;;;;-3.76;93.39;101795.97;4974164;28;20208;-82
2023/03/02 05:08:12;;;;;;;79.10;19.90;;;;;;;-3.71;94.13;101790.81;4958239;28;20602;-81
2023/03/02 05:10:38;;;;;;;51.30;19.33;;;;;;;-3.64;94.30;101797.88;4970641;28;20259;-83
2023/03/02 05:13:05;;;;;;;71.87;19.73;;;;;;;-3.57;94.78;101792.75;4963547;28;20251;-80
2023/03/02 05:15:35;;;;;;;66.67;18.57;;;;;;;-3.50;95.61;101794.59;4974562;28;20196;-81
2023/03/02 05:18:05;;;;;;;69.17;20.43;;;;;;;-3.45;95.63;101786.84;4961254;28;20225;-81
2023/03/02 05:20:32;;;;;;;56.70;19.53;;;;;;;-3.37;96.11;101787.78;4974760;28;20214;-81
2023/03/02 05:23:01;;;;;;;56.60;20.33;;;;;;;-3.32;96.61;101780.03;4977136;28;20319;-81
2023/03/02 05:25:30;;;;;;;60.53;19.77;;;;;;;-3.27;96.84;101787.03;4949421;29;20689;-82
2023/03/02 05:27:56;;;;;;;67.50;21.83;;;;;;;-3.25;97.07;101774.91;4950404;29;20207;-81
2023/03/02 05:30:23;;;;;;;60.03;22.20;;;;;;;-3.19;97.60;101768.88;4960528;28;20678;-82
2023/03/02 05:32:50;;;;;;;60.87;23.10;;;;;;;-3.15;97.95;101779.34;4955378;29;20279;-81
2023/03/02 05:35:19;;;;;;;55.50;21.87;;;;;;;-3.10;98.69;101784.63;4970616;28;20213;-80
2023/03/02 05:37:46;;;;;;;52.23;22.33;;;;;;;-3.06;98.59;101770.78;4955134;29;20205;-84
2023/03/02 05:40:15;;;;;;;67.97;21.43;;;;;;;-2.99;99.06;101776.91;4951967;28;20204;-81
2023/03/02 05:42:42;;;;;;;61.57;23.43;;;;;;;-2.94;99.35;101781.31;4954480;28;20220;-83
2023/03/02 05:45:16;;;;;;;72.13;23.90;;;;;;;-2.89;100.00;101777.03;4952301;28;20208;-84
2023/03/02 05:47:43;;;;;;;81.17;21.67;;;;;;;-2.84;100.00;101772.69;4960054;28;20200;-81
2023/03/02 05:50:10;;;;;;;67.20;23.67;;;;;;;-2.81;100.00;101772.72;4948928;28;20219;-84
2023/03/02 05:52:38;;;;;;;56.20;22.37;;;;;;;-2.76;100.00;101782.34;4945998;28;20217;-85
2023/03/02 05:55:05;;;;;;;81.30;22.53;;;;;;;-2.74;100.00;101778.88;4951496;28;20209;-83
2023/03/02 05:57:33;;;;;;;74.07;22.43;;;;;;;-2.71;100.00;101771.09;4952940;28;20220;-85
2023/03/02 06:00:00;;;;;;;71.03;22.77;;;;;;;-2.66;100.00;101778.94;4952650;28;20233;-83
2023/03/02 06:02:26;;;;;;;51.77;19.37;;;;;;;-2.64;100.00;101787.66;4949531;28;20579;-84
2023/03/02 06:04:53;;;;;;;57.73;20.10;;;;;;;-2.61;100.00;101785.06;4949851;28;20209;-81
2023/03/02 06:07:19;;;;;;;58.33;20.90;;;;;;;-2.60;100.00;101805.06;4951969;28;20208;-81
2023/03/02 06:09:47;;;;;;;56.03;21.57;;;;;;;-2.60;100.00;101800.75;4950088;28;20215;-83
2023/03/02 06:12:13;;;;;;;58.83;21.00;;;;;;;-2.58;100.00;101806.84;4949303;28;20233;-83
2023/03/02 06:14:40;;;;;;;49.10;20.40;;;;;;;-2.55;100.00;101806.00;4950989;28;20802;-83
2023/03/02 06:17:06;;;;;;;80.17;21.10;;;;;;;-2.53;100.00;101805.16;4948604;28;20201;-83
2023/03/02 06:19:33;;;;;;;67.90;21.63;;;;;;;-2.50;100.00;101817.31;4950720;28;20225;-84
2023/03/02 06:21:59;;;;;;;58.70;23.03;;;;;;;-2.47;100.00;101818.22;4960357;28;20209;-80
2023/03/02 06:24:26;;;;;;;58.93;21.63;;;;;;;-2.44;100.00;101812.16;4949352;28;20632;-81
2023/03/02 06:26:54;;;;;;;59.93;21.83;;;;;;;-2.40;100.00;101820.91;4952299;28;20209;-80
2023/03/02 06:29:21;;;;;;;76.63;23.00;;;;;;;-2.38;100.00;101820.06;4958103;28;20209;-81
2023/03/02 06:31:48;;;;;;;76.33;23.70;;;;;;;-2.34;100.00;101831.41;4957702;28;20220;-82
2023/03/02 06:34:16;;;;;;;63.20;21.20;;;;;;;-2.31;100.00;101820.97;4953793;28;20254;-80
2023/03/02 06:36:42;;;;;;;61.10;22.73;;;;;;;-2.29;100.00;101820.13;4954445;28;20737;-82
2023/03/02 06:39:14;;;;;;;84.43;25.17;;;;;;;-2.25;100.00;101819.28;4941931;28;20741;-80
2023/03/02 06:41:41;;;;;;;77.30;24.23;;;;;;;-2.22;100.00;101823.66;4956663;28;20594;-80
2023/03/02 06:44:09;;;;;;;69.77;23.43;;;;;;;-2.18;100.00;101831.53;4954756;28;20231;-81
2023/03/02 06:46:36;;;;;;;72.60;22.40;;;;;;;-2.16;100.00;101829.81;4954220;28;20205;-83
2023/03/02 06:49:03;;;;;;;51.13;18.63;;;;;;;-2.14;100.00;101832.41;4949913;28;20213;-81
2023/03/02 06:51:29;;;;;;;54.50;20.37;;;;;;;-2.14;100.00;101835.88;4955846;28;20201;-80
2023/03/02 06:53:56;;;;;;;53.17;21.47;;;;;;;-2.13;100.00;101835.03;4958862;28;20232;-83
2023/03/02 06:56:23;;;;;;;60.50;21.60;;;;;;;-2.12;100.00;101838.50;4958816;28;20205;-83
2023/03/02 06:58:49;;;;;;;65.87;20.63;;;;;;;-2.10;100.00;101842.00;4952520;28;20233;-84
2023/03/02 07:01:17;;;;;;;65.70;21.87;;;;;;;-2.07;100.00;101835.94;4954040;28;20289;-81
2023/03/02 07:03:44;;;;;;;60.63;22.17;;;;;;;-2.07;100.00;101828.09;4944955;28;20235;-80
2023/03/02 07:06:12;;;;;;;68.10;22.97;;;;;;;-2.04;100.00;101820.31;4953450;28;20201;-81
2023/03/02 07:08:38;;;;;;;67.57;20.87;;;;;;;-2.01;100.00;101826.44;4960764;28;20205;-83
2023/03/02 07:11:06;;;;;;;56.17;19.13;;;;;;;-2.00;100.00;101822.97;4955158;28;20209;-81
2023/03/02 07:13:32;;;;;;;53.73;16.27;;;;;;;-1.98;100.00;101815.13;4948773;28;20292;-83
2023/03/02 07:15:59;;;;;;;45.83;18.47;;;;;;;-1.96;100.00;101813.38;4956120;28;20212;-81
2023/03/02 07:18:27;;;;;;;50.83;16.27;;;;;;;-1.94;100.00;101811.66;4954799;28;20224;-82
2023/03/02 07:20:53;;;;;;;45.67;18.90;;;;;;;-1.92;100.00;101817.75;4957929;28;20224;-81
2023/03/02 07:23:20;;;;;;;30.50;11.67;;;;;;;-1.92;100.00;101818.63;4952743;28;20230;-82
2023/03/02 07:25:46;;;;;;;54.30;18.80;;;;;;;-1.91;100.00;101815.16;4947120;28;20300;-82
2023/03/02 07:28:13;;;;;;;54.03;18.10;;;;;;;-1.88;100.00;101812.59;4961288;28;20233;-81
2023/03/02 07:30:39;;;;;;;43.70;16.23;;;;;;;-1.87;100.00;101809.09;4942955;28;20213;-81
2023/03/02 07:33:06;;;;;;;42.87;18.67;;;;;;;-1.85;100.00;101809.13;4947536;28;20228;-81
2023/03/02 07:35:34;;;;;;;44.33;19.10;;;;;;;-1.84;100.00;101809.13;4952759;28;20697;-81
2023/03/02 07:38:00;;;;;;;50.53;19.30;;;;;;;-1.81;100.00;101806.53;4952848;28;20220;-82
2023/03/02 07:40:27;;;;;;;43.07;18.30;;;;;;;-1.78;100.00;101803.91;4948619;28;20229;-81
2023/03/02 07:42:53;;;;;;;54.90;19.43;;;;;;;-1.73;100.00;101795.25;4945258;28;20230;-79
2023/03/02 07:45:23;;;;;;;53.30;18.77;;;;;;;-1.71;100.00;101801.34;4949626;28;20209;-81
2023/03/02 07:47:50;;;;;;;48.67;19.43;;;;;;;-1.69;100.00;101799.63;4949437;28;20220;-83
2023/03/02 07:50:16;;;;;;;52.23;21.33;;;;;;;-1.67;100.00;101796.16;4947506;28;20197;-80
2023/03/02 07:52:44;;;;;;;46.87;19.67;;;;;;;-1.63;100.00;101794.44;4950187;28;20589;-82
2023/03/02 07:55:11;;;;;;;53.27;20.33;;;;;;;-1.61;100.00;101796.16;4948097;28;20221;-82
2023/03/02 07:57:37;;;;;;;46.93;19.37;;;;;;;-1.60;100.00;101792.69;4951840;28;20221;-81
2023/03/02 08:00:04;;;;;;;49.50;20.23;;;;;;;-1.58;100.00;101798.81;4953171;28;20239;-83
2023/03/02 08:02:32;;;;;;;44.30;18.80;;;;;;;-1.53;100.00;101804.06;4953135;28;20209;-81
2023/03/02 08:04:59;;;;;;;44.47;20.07;;;;;;;-1.52;100.00;101811.91;4952095;28;20206;-81
2023/03/02 08:07:25;;;;;;;53.07;21.67;;;;;;;-1.50;100.00;101804.94;4954334;28;20225;-80
2023/03/02 08:09:53;;;;;;;49.87;20.73;;;;;;;-1.45;100.00;101804.97;4953194;28;20205;-82
2023/03/02 08:12:19;;;;;;;51.47;20.47;;;;;;;-1.43;100.00;101800.59;4950283;28;20580;-81
2023/03/02 08:14:47;;;;;;;49.90;21.07;;;;;;;-1.41;100.00;101804.09;4954556;28;20239;-81
2023/03/02 08:17:13;;;;;;;44.43;18.67;;;;;;;-1.38;100.00;101809.34;4954722;28;20213;-81
2023/03/02 08:19:40;;;;;;;40.87;19.57;;;;;;;-1.34;100.00;101815.47;4943926;28;20237;-81
2023/03/02 08:22:06;;;;;;;47.00;20.10;;;;;;;-1.33;100.00;101814.59;4946678;28;20201;-81
2023/03/02 08:24:33;;;;;;;46.20;21.17;;;;;;;-1.32;100.00;101825.06;4950455;28;20232;-80
2023/03/02 08:27:01;;;;;;;47.90;20.07;;;;;;;-1.28;100.00;101818.09;4952974;28;20204;-81
2023/03/02 08:29:28;;;;;;;51.57;20.97;;;;;;;-1.27;100.00;101817.25;4951967;28;20300;-81
2023/03/02 08:31:55;;;;;;;42.87;19.73;;;;;;;-1.29;100.00;101817.22;4952435;28;20212;-80
2023/03/02 08:34:21;;;;;;;39.23;18.67;;;;;;;-1.27;100.00;101822.47;4954243;28;20235;-81
2023/03/02 08:36:48;;;;;;;44.43;20.37;;;;;;;-1.26;100.00;101829.44;4947623;28;20201;-82
2023/03/02 08:39:14;;;;;;;44.77;20.77;;;;;;;-1.23;100.00;101819.84;4952408;28;20237;-81
2023/03/02 08:41:41;;;;;;;50.37;20.57;;;;;;;-1.20;100.00;101819.00;4946305;28;20285;-82
2023/03/02 08:44:09;;;;;;;46.90;19.07;;;;;;;-1.16;100.00;101825.97;4953504;28;20714;-80
2023/03/02 08:46:35;;;;;;;46.47;20.10;;;;;;;-1.16;100.00;101824.25;4946633;28;20223;-81
2023/03/02 08:49:02;;;;;;;41.23;18.83;;;;;;;-1.12;100.00;101822.50;4949427;28;20688;-81
2023/03/02 08:51:28;;;;;;;37.47;18.00;;;;;;;-1.09;100.00;101826.03;4951445;28;20220;-82
2023/03/02 08:53:56;;;;;;;39.57;17.20;;;;;;;-1.06;100.00;101827.75;4951243;28;20636;-82
2023/03/02 08:56:25;;;;;;;45.43;18.50;;;;;;;-1.04;100.00;101826.00;4955307;28;20209;-82
2023/03/02 08:58:53;;;;;;;44.63;17.70;;;;;;;-1.01;100.00;101812.94;4943493;28;20212;-83
2023/03/02 09:01:22;;;;;;;48.93;19.57;;;;;;;-0.99;100.00;101808.59;4944383;28;20216;-80
2023/03/02 09:03:49;;;;;;;40.47;18.43;;;;;;;-0.97;100.00;101812.09;4949347;28;20225;-80
2023/03/02 09:06:16;;;;;;;47.93;18.70;;;;;;;-0.95;100.00;101805.13;4954271;28;20232;-81
2023/03/02 09:08:43;;;;;;;40.57;17.20;;;;;;;-0.93;100.00;101816.47;4949413;28;20213;-81
2023/03/02 09:11:09;;;;;;;43.67;20.00;;;;;;;-0.91;100.00;101812.13;4951077;28;20211;-80
2023/03/02 09:13:37;;;;;;;45.17;19.33;;;;;;;-0.89;100.00;101810.34;4947234;28;20236;-81
2023/03/02 09:16:03;;;;;;;38.80;19.37;;;;;;;-0.85;100.00;101819.97;4948650;28;20205;-80
2023/03/02 09:18:31;;;;;;;47.90;19.63;;;;;;;-0.85;100.00;101808.63;4949201;28;20249;-82
2023/03/02 09:20:58;;;;;;;47.93;21.83;;;;;;;-0.81;100.00;101818.22;4951994;28;20271;-83
2023/03/02 09:23:26;;;;;;;41.77;17.73;;;;;;;-0.77;100.00;101814.75;4946729;28;20424;-82
2023/03/02 09:25:53;;;;;;;47.33;19.10;;;;;;;-0.74;100.00;101820.00;4956316;28;20201;-82
2023/03/02 09:28:21;;;;;;;48.47;19.20;;;;;;;-0.74;100.00;101817.38;4945725;28;20584;-81
2023/03/02 09:30:49;;;;;;;44.73;20.10;;;;;;;-0.73;100.00;101814.78;4942302;28;20224;-80
2023/03/02 09:33:15;;;;;;;50.97;20.13;;;;;;;-0.69;100.00;101818.22;4945134;28;20224;-80
2023/03/02 09:35:44;;;;;;;43.70;18.67;;;;;;;-0.67;100.00;101824.34;4954513;28;20667;-80
2023/03/02 09:38:14;;;;;;;45.27;19.97;;;;;;;-0.65;100.00;101819.13;4953148;28;20548;-81
2023/03/02 09:40:56;;;;;;;50.43;19.83;;;;;;;-0.63;100.00;101818.25;4942021;28;20346;-81
2023/03/02 09:43:32;;;;;;;52.43;19.93;;;;;;;-0.64;100.00;101826.09;4947989;28;20252;-82
2023/03/02 09:46:10;;;;;;;44.00;19.93;;;;;;;-0.63;100.00;101830.47;4947095;28;20196;-81
2023/03/02 09:48:40;;;;;;;40.83;18.03;;;;;;;-0.59;100.00;101824.38;4954695;28;20218;-80
2023/03/02 09:51:19;;;;;;;40.97;17.30;;;;;;;-0.56;100.00;101820.03;4946937;28;20213;-79
2023/03/02 09:53:51;;;;;;;38.13;19.43;;;;;;;-0.56;100.00;101824.38;4941512;28;20714;-81
2023/03/02 09:56:19;;;;;;;47.13;19.27;;;;;;;-0.54;100.00;101814.78;4952061;28;20213;-80
2023/03/02 09:58:53;;;;;;;45.67;19.30;;;;;;;-0.52;100.00;101828.72;4944166;28;20217;-80
2023/03/02 10:01:32;;;;;;;39.53;19.63;;;;;;;-0.51;100.00;101822.63;4949118;28;20208;-80
2023/03/02 10:04:08;;;;;;;44.27;18.80;;;;;;;-0.50;100.00;101820.00;4953175;28;20233;-80
2023/03/02 10:06:36;;;;;;;43.20;17.70;;;;;;;-0.47;100.00;101821.75;4954446;28;20204;-81
2023/03/02 10:09:02;;;;;;;40.33;18.90;;;;;;;-0.45;100.00;101827.88;4944530;29;20232;-81
2023/03/02 10:11:36;;;;;;;43.77;20.13;;;;;;;-0.40;100.00;101821.78;4949823;28;20204;-81
2023/03/02 10:14:10;;;;;;;45.53;19.50;;;;;;;-0.36;100.00;101820.03;4949486;28;20279;-80
2023/03/02 10:16:47;;;;;;;47.60;19.37;;;;;;;-0.32;100.00;101811.28;4951520;28;20257;-80
2023/03/02 10:19:20;;;;;;;39.80;18.90;;;;;;;-0.30;100.00;101819.13;4949871;28;20215;-81
2023/03/02 10:21:53;;;;;;;38.67;18.30;;;;;;;-0.29;100.00;101806.06;4953294;28;20553;-81
2023/03/02 10:24:26;;;;;;;38.60;18.20;;;;;;;-0.27;100.00;101811.28;4952881;28;20233;-80
2023/03/02 10:26:54;;;;;;;34.13;16.77;;;;;;;-0.25;100.00;101804.31;4949896;28;20565;-80
2023/03/02 10:29:32;;;;;;;38.93;18.33;;;;;;;-0.22;100.00;101802.56;4946661;28;20218;-80
2023/03/02 10:32:01;;;;;;;40.33;17.17;;;;;;;-0.18;100.00;101801.66;4948072;28;20220;-80
2023/03/02 10:34:30;;;;;;;37.10;17.30;;;;;;;-0.14;100.00;101806.03;4948995;28;20221;-80
2023/03/02 10:36:58;;;;;;;42.77;18.60;;;;;;;-0.10;100.00;101804.28;4949511;28;20750;-82
2023/03/02 10:39:24;;;;;;;44.97;19.00;;;;;;;-0.08;100.00;101803.41;4948080;28;20313;-82
2023/03/02 10:41:54;;;;;;;37.47;17.63;;;;;;;-0.04;100.00;101810.41;4951137;28;20217;-80
2023/03/02 10:44:27;;;;;;;39.33;19.10;;;;;;;-0.03;100.00;101806.03;4947870;28;20251;-82
2023/03/02 10:46:53;;;;;;;44.40;19.50;;;;;;;0.01;100.00;101813.00;4951944;28;20220;-81
2023/03/02 10:49:29;;;;;;;42.20;18.43;;;;;;;0.06;100.00;101810.38;4948766;28;20278;-81
2023/03/02 10:51:59;;;;;;;37.97;17.07;;;;;;;0.08;100.00;101808.63;4953806;28;20221;-82
2023/03/02 10:54:27;;;;;;;36.30;17.00;;;;;;;0.08;100.00;101804.25;4948251;28;20225;-81
2023/03/02 10:56:56;;;;;;;35.47;15.53;;;;;;;0.09;100.00;101803.38;4947011;28;20212;-80
2023/03/02 10:59:42;;;;;;;41.50;18.47;;;;;;;0.10;100.00;101791.16;4944192;28;20205;-81
2023/03/02 11:02:15;;;;;;;38.53;19.43;;;;;;;0.16;100.00;101792.03;4948181;28;20205;-80
2023/03/02 11:04:42;;;;;;;42.57;19.93;;;;;;;0.21;100.00;101785.00;4947062;28;20236;-80
2023/03/02 11:07:16;;;;;;;42.77;20.87;;;;;;;0.27;100.00;101784.13;4953561;28;20591;-80
2023/03/02 11:09:42;;;;;;;33.07;17.43;;;;;;;0.31;100.00;101781.50;4953804;28;20217;-80
2023/03/02 11:12:15;;;;;;;41.03;18.43;;;;;;;0.41;100.00;101781.44;4951583;28;20590;-81
2023/03/02 11:14:42;;;;;;;38.43;19.27;;;;;;;0.47;100.00;101776.19;4950125;28;20718;-81